createdAt,value
2018-07-13T00:00:53.919Z,19.40
2018-07-13T00:03:21.312Z,19.40
2018-07-13T00:05:48.693Z,19.40
2018-07-13T00:08:16.095Z,19.40
2018-07-13T00:10:43.497Z,19.40
2018-07-13T00:13:10.895Z,19.40
2018-07-13T00:15:48.707Z,19.30
2018-07-13T00:18:16.073Z,19.40
2018-07-13T00:23:10.855Z,19.30
2018-07-13T00:25:38.256Z,19.20
2018-07-13T00:28:05.684Z,19.20
2018-07-13T00:30:33.058Z,19.20
2018-07-13T00:33:00.459Z,19.20
2018-07-13T00:35:27.843Z,19.20
2018-07-13T00:37:55.230Z,19.20
2018-07-13T00:40:22.625Z,19.10
2018-07-13T00:42:50.071Z,19.10
2018-07-13T00:45:17.466Z,19.10
2018-07-13T00:47:44.847Z,19.00
2018-07-13T00:50:12.271Z,19.00
2018-07-13T00:52:39.673Z,18.90
2018-07-13T00:55:07.064Z,19.00
2018-07-13T00:57:34.465Z,18.90
2018-07-13T01:00:01.872Z,18.90
2018-07-13T01:02:29.301Z,18.90
2018-07-13T01:04:56.703Z,18.90
2018-07-13T01:07:24.101Z,18.80
2018-07-13T01:09:51.540Z,18.90
2018-07-13T01:12:18.936Z,18.80
2018-07-13T01:14:46.364Z,18.80
2018-07-13T01:17:13.772Z,18.70
2018-07-13T01:19:41.176Z,18.70
2018-07-13T01:22:08.568Z,18.70
2018-07-13T01:24:35.974Z,18.70
2018-07-13T01:27:03.404Z,18.60
2018-07-13T01:29:30.784Z,18.60
2018-07-13T01:31:58.195Z,18.60
2018-07-13T01:34:25.577Z,18.60
2018-07-13T01:36:53.150Z,18.50
2018-07-13T01:39:20.551Z,18.50
2018-07-13T01:41:47.927Z,18.50
2018-07-13T01:44:15.314Z,18.50
2018-07-13T01:46:42.691Z,18.50
2018-07-13T01:49:10.063Z,18.40
2018-07-13T01:51:37.463Z,18.40
2018-07-13T01:54:04.864Z,18.40
2018-07-13T01:56:32.235Z,18.40
2018-07-13T01:58:59.608Z,18.40
2018-07-13T02:01:27.018Z,18.30
2018-07-13T02:03:54.414Z,18.30
2018-07-13T02:06:21.828Z,18.30
2018-07-13T02:08:49.250Z,18.30
2018-07-13T02:11:16.663Z,18.30
2018-07-13T02:13:44.079Z,18.20
2018-07-13T02:16:11.507Z,18.20
2018-07-13T02:18:38.895Z,18.20
2018-07-13T02:21:06.314Z,18.20
2018-07-13T02:23:33.700Z,18.20
2018-07-13T02:26:01.082Z,18.20
2018-07-13T02:28:28.479Z,18.10
2018-07-13T02:30:55.867Z,18.10
2018-07-13T02:35:50.659Z,18.10
2018-07-13T02:38:18.044Z,18.10
2018-07-13T02:40:45.463Z,18.10
2018-07-13T02:43:12.928Z,18.10
2018-07-13T02:45:40.303Z,18.10
2018-07-13T02:48:07.779Z,18.00
2018-07-13T02:50:35.166Z,18.00
2018-07-13T02:53:02.583Z,18.00
2018-07-13T02:57:57.410Z,18.00
2018-07-13T03:00:24.851Z,18.00
2018-07-13T03:02:52.227Z,18.00
2018-07-13T03:05:19.667Z,17.90
2018-07-13T03:07:47.060Z,17.90
2018-07-13T03:10:14.463Z,17.90
2018-07-13T03:12:41.842Z,17.90
2018-07-13T03:15:09.272Z,17.90
2018-07-13T03:17:36.720Z,17.90
2018-07-13T03:20:04.192Z,17.90
2018-07-13T03:22:31.608Z,17.90
2018-07-13T03:24:59.043Z,17.80
2018-07-13T03:27:26.435Z,17.80
2018-07-13T03:29:53.807Z,17.80
2018-07-13T03:32:21.219Z,17.80
2018-07-13T03:34:48.671Z,17.70
2018-07-13T03:37:16.064Z,17.70
2018-07-13T03:39:43.691Z,17.60
2018-07-13T03:42:11.071Z,17.60
2018-07-13T03:44:38.445Z,17.50
2018-07-13T03:47:05.838Z,17.40
2018-07-13T03:49:33.235Z,17.40
2018-07-13T03:52:00.608Z,17.30
2018-07-13T03:54:28.023Z,17.30
2018-07-13T03:56:55.414Z,17.20
2018-07-13T03:59:22.817Z,17.20
2018-07-13T04:01:50.238Z,17.10
2018-07-13T04:04:17.636Z,17.10
2018-07-13T04:06:45.036Z,17.00
2018-07-13T04:09:12.443Z,17.00
2018-07-13T04:11:39.916Z,17.00
2018-07-13T04:14:07.779Z,17.00
2018-07-13T04:16:35.191Z,17.00
2018-07-13T04:21:30.021Z,16.90
2018-07-13T04:23:57.515Z,16.90
2018-07-13T04:26:24.973Z,16.90
2018-07-13T04:28:52.580Z,16.90
2018-07-13T04:31:19.978Z,17.00
2018-07-13T04:33:47.400Z,17.00
2018-07-13T04:36:14.839Z,16.90
2018-07-13T04:38:42.280Z,16.90
2018-07-13T04:41:09.766Z,16.90
2018-07-13T04:43:37.155Z,17.00
2018-07-13T04:46:04.813Z,17.00
2018-07-13T04:48:34.208Z,17.00
2018-07-13T04:50:59.811Z,17.00
2018-07-13T04:53:27.275Z,17.00
2018-07-13T04:55:54.737Z,17.10
2018-07-13T04:58:22.231Z,17.10
2018-07-13T05:00:49.779Z,17.10
2018-07-13T05:03:17.272Z,17.20
2018-07-13T05:05:44.736Z,17.20
2018-07-13T05:08:12.245Z,17.20
2018-07-13T05:10:39.739Z,17.30
2018-07-13T05:13:07.175Z,17.40
2018-07-13T05:15:34.635Z,17.40
2018-07-13T05:18:02.073Z,17.50
2018-07-13T05:20:29.559Z,17.60
2018-07-13T05:22:57.065Z,17.60
2018-07-13T05:25:24.551Z,17.70
2018-07-13T05:27:52.026Z,17.80
2018-07-13T05:30:19.516Z,17.90
2018-07-13T05:32:47.027Z,18.00
2018-07-13T05:35:14.507Z,18.00
2018-07-13T05:37:42.005Z,18.10
2018-07-13T05:40:09.512Z,18.30
2018-07-13T05:42:37.051Z,18.40
2018-07-13T05:45:04.702Z,18.60
2018-07-13T05:47:32.227Z,18.80
2018-07-13T05:49:59.818Z,19.00
2018-07-13T05:52:27.377Z,19.30
2018-07-13T05:54:54.890Z,19.50
2018-07-13T05:57:22.390Z,19.70
2018-07-13T05:59:49.879Z,19.90
2018-07-13T06:02:17.408Z,20.10
2018-07-13T06:04:45.149Z,20.40
2018-07-13T06:07:12.711Z,20.60
2018-07-13T06:09:40.290Z,20.80
2018-07-13T06:12:07.964Z,21.00
2018-07-13T06:14:35.743Z,21.10
2018-07-13T06:17:03.193Z,21.30
2018-07-13T06:19:30.820Z,21.40
2018-07-13T06:21:58.312Z,21.50
2018-07-13T06:24:25.775Z,21.60
2018-07-13T06:26:53.206Z,21.80
2018-07-13T06:29:20.715Z,21.80
2018-07-13T06:31:48.204Z,21.90
2018-07-13T06:34:15.699Z,22.00
2018-07-13T06:36:43.435Z,22.10
2018-07-13T06:39:11.988Z,22.20
2018-07-13T06:41:39.536Z,22.30
2018-07-13T06:44:07.062Z,22.40
2018-07-13T06:46:34.497Z,22.50
2018-07-13T06:49:01.924Z,22.50
2018-07-13T06:51:29.434Z,22.50
2018-07-13T06:53:56.915Z,22.40
2018-07-13T06:56:24.361Z,22.40
2018-07-13T06:58:59.537Z,22.30
2018-07-13T07:01:26.997Z,22.30
2018-07-13T07:04:27.600Z,22.20
2018-07-13T07:06:55.668Z,22.20
2018-07-13T07:09:23.755Z,22.10
2018-07-13T07:12:10.420Z,22.00
2018-07-13T07:14:37.762Z,22.00
2018-07-13T07:17:05.206Z,22.00
2018-07-13T07:19:32.620Z,22.00
2018-07-13T07:22:00.096Z,22.00
2018-07-13T07:24:27.657Z,22.10
2018-07-13T07:26:55.119Z,22.10
2018-07-13T07:29:22.638Z,22.30
2018-07-13T07:31:50.076Z,22.40
2018-07-13T07:34:17.535Z,22.50
2018-07-13T07:36:44.931Z,22.70
2018-07-13T07:39:12.364Z,22.90
2018-07-13T07:41:40.183Z,23.00
2018-07-13T07:44:07.655Z,23.10
2018-07-13T07:46:35.218Z,23.30
2018-07-13T07:49:02.670Z,23.30
2018-07-13T07:51:30.106Z,23.50
2018-07-13T07:53:57.544Z,23.50
2018-07-13T07:56:24.985Z,23.50
2018-07-13T07:58:52.375Z,23.60
2018-07-13T08:01:19.836Z,23.60
2018-07-13T08:03:47.284Z,23.60
2018-07-13T08:06:14.915Z,23.70
2018-07-13T08:08:42.217Z,23.80
2018-07-13T08:11:09.624Z,24.00
2018-07-13T08:13:37.186Z,24.00
2018-07-13T08:16:04.536Z,24.10
2018-07-13T08:18:31.925Z,24.20
2018-07-13T08:20:59.997Z,24.20
2018-07-13T08:23:27.479Z,24.30
2018-07-13T08:25:55.329Z,24.30
2018-07-13T08:28:22.850Z,24.30
2018-07-13T08:30:58.131Z,24.30
2018-07-13T08:33:25.559Z,24.30
2018-07-13T08:35:53.024Z,24.20
2018-07-13T08:38:20.506Z,24.20
2018-07-13T08:40:48.009Z,24.10
2018-07-13T08:43:15.482Z,24.10
2018-07-13T08:45:42.939Z,24.10
2018-07-13T08:48:10.700Z,24.20
2018-07-13T08:50:38.245Z,24.20
2018-07-13T08:53:06.120Z,24.10
2018-07-13T08:55:33.631Z,24.20
2018-07-13T08:58:01.138Z,24.30
2018-07-13T09:00:28.649Z,24.40
2018-07-13T09:02:56.127Z,24.60
2018-07-13T09:05:23.647Z,24.70
2018-07-13T09:07:51.157Z,24.90
2018-07-13T09:10:18.592Z,25.10
2018-07-13T09:12:46.059Z,25.20
2018-07-13T09:15:14.300Z,25.20
2018-07-13T09:17:41.811Z,25.30
2018-07-13T09:22:38.620Z,25.40
2018-07-13T09:25:06.931Z,25.50
2018-07-13T09:27:34.401Z,25.60
2018-07-13T09:30:02.002Z,25.70
2018-07-13T09:32:29.484Z,25.90
2018-07-13T09:34:56.955Z,26.10
2018-07-13T09:37:24.418Z,26.30
2018-07-13T09:39:51.829Z,26.40
2018-07-13T09:42:19.359Z,26.50
2018-07-13T09:44:46.793Z,26.60
2018-07-13T09:47:14.246Z,26.70
2018-07-13T09:49:41.775Z,26.80
2018-07-13T09:52:09.289Z,26.90
2018-07-13T09:54:36.777Z,26.90
2018-07-13T09:57:04.272Z,27.00
2018-07-13T09:59:32.201Z,27.00
2018-07-13T10:01:59.640Z,27.10
2018-07-13T10:04:27.341Z,27.20
2018-07-13T10:06:54.848Z,27.30
2018-07-13T10:09:22.278Z,27.40
2018-07-13T10:11:49.723Z,27.60
2018-07-13T10:14:17.223Z,27.70
2018-07-13T10:16:44.700Z,27.80
2018-07-13T10:19:12.209Z,27.90
2018-07-13T10:21:40.560Z,28.00
2018-07-13T10:24:08.221Z,28.10
2018-07-13T10:26:36.918Z,28.10
2018-07-13T10:29:06.784Z,28.20
2018-07-13T10:31:34.371Z,28.40
2018-07-13T10:34:02.195Z,28.40
2018-07-13T10:36:31.466Z,28.50
2018-07-13T10:38:58.907Z,28.60
2018-07-13T10:41:26.363Z,28.70
2018-07-13T10:43:53.821Z,28.70
2018-07-13T10:46:21.292Z,28.70
2018-07-13T10:48:48.775Z,28.70
2018-07-13T10:51:16.236Z,28.80
2018-07-13T10:53:43.723Z,28.90
2018-07-13T10:56:11.148Z,29.00
2018-07-13T10:58:38.606Z,29.00
2018-07-13T11:01:05.981Z,29.10
2018-07-13T11:03:33.383Z,29.10
2018-07-13T11:06:00.824Z,29.20
2018-07-13T11:08:28.303Z,29.20
2018-07-13T11:10:55.715Z,29.20
2018-07-13T11:13:23.132Z,29.20
2018-07-13T11:15:50.539Z,29.10
2018-07-13T11:18:17.959Z,29.10
2018-07-13T11:20:45.367Z,29.10
2018-07-13T11:23:12.825Z,29.10
2018-07-13T11:25:40.259Z,29.20
2018-07-13T11:28:07.667Z,29.20
2018-07-13T11:30:35.095Z,29.30
2018-07-13T11:33:02.486Z,29.30
2018-07-13T11:35:29.895Z,29.40
2018-07-13T11:37:57.383Z,29.50
2018-07-13T11:40:24.772Z,29.60
2018-07-13T11:42:52.171Z,29.70
2018-07-13T11:45:19.761Z,29.80
2018-07-13T11:47:47.231Z,29.80
2018-07-13T11:50:14.651Z,29.80
2018-07-13T11:52:42.088Z,29.80
2018-07-13T11:55:09.552Z,29.80
2018-07-13T11:57:37.005Z,29.80
2018-07-13T12:00:04.455Z,29.90
2018-07-13T12:02:31.868Z,29.90
2018-07-13T12:04:59.484Z,29.90
2018-07-13T12:07:27.036Z,30.00
2018-07-13T12:09:54.374Z,30.20
2018-07-13T12:12:21.825Z,30.30
2018-07-13T12:14:49.245Z,30.50
2018-07-13T12:17:16.685Z,30.60
2018-07-13T12:19:44.089Z,30.60
2018-07-13T12:22:11.512Z,30.50
2018-07-13T12:24:38.974Z,30.30
2018-07-13T12:27:06.456Z,30.20
2018-07-13T12:29:33.887Z,30.10
2018-07-13T12:32:01.312Z,30.00
2018-07-13T12:34:28.716Z,29.90
2018-07-13T12:36:56.155Z,29.90
2018-07-13T12:39:23.600Z,29.90
2018-07-13T12:44:18.440Z,30.20
2018-07-13T12:46:45.905Z,30.30
2018-07-13T12:49:13.797Z,30.40
2018-07-13T12:51:41.368Z,30.40
2018-07-13T12:54:08.986Z,30.40
2018-07-13T12:56:36.276Z,30.50
2018-07-13T12:59:03.728Z,30.50
2018-07-13T13:01:31.200Z,30.50
2018-07-13T13:03:58.645Z,30.60
2018-07-13T13:06:26.090Z,30.70
2018-07-13T13:08:53.535Z,30.70
2018-07-13T13:11:20.952Z,30.80
2018-07-13T13:13:48.384Z,30.90
2018-07-13T13:16:15.828Z,30.90
2018-07-13T13:18:43.267Z,31.00
2018-07-13T13:21:10.769Z,30.90
2018-07-13T13:23:38.215Z,30.80
2018-07-13T13:26:05.733Z,30.70
2018-07-13T13:28:33.193Z,30.60
2018-07-13T13:31:00.717Z,30.60
2018-07-13T13:33:28.125Z,30.60
2018-07-13T13:35:55.536Z,30.50
2018-07-13T13:38:23.008Z,30.50
2018-07-13T13:40:50.831Z,30.50
2018-07-13T13:43:18.232Z,30.50
2018-07-13T13:45:45.657Z,30.60
2018-07-13T13:48:13.155Z,30.60
2018-07-13T13:50:40.616Z,30.60
2018-07-13T13:53:08.047Z,30.60
2018-07-13T13:55:35.507Z,30.50
2018-07-13T13:58:02.981Z,30.50
2018-07-13T14:00:30.415Z,30.50
2018-07-13T14:02:57.845Z,30.50
2018-07-13T14:05:25.393Z,30.50
2018-07-13T14:07:52.828Z,30.60
2018-07-13T14:10:20.297Z,30.70
2018-07-13T14:12:47.849Z,30.80
2018-07-13T14:15:15.288Z,31.00
2018-07-13T14:17:42.729Z,31.10
2018-07-13T14:20:10.149Z,31.20
2018-07-13T14:22:37.638Z,31.20
2018-07-13T14:25:05.086Z,31.30
2018-07-13T14:27:32.549Z,31.20
2018-07-13T14:29:59.964Z,31.20
2018-07-13T14:32:27.387Z,31.30
2018-07-13T14:34:54.871Z,31.40
2018-07-13T14:37:22.296Z,31.50
2018-07-13T14:39:49.727Z,31.60
2018-07-13T14:42:17.173Z,31.70
2018-07-13T14:44:44.616Z,31.70
2018-07-13T14:47:12.236Z,31.70
2018-07-13T14:49:39.678Z,31.60
2018-07-13T14:52:07.096Z,31.50
2018-07-13T14:54:34.523Z,31.50
2018-07-13T14:57:01.990Z,31.50
2018-07-13T14:59:29.420Z,31.50
2018-07-13T15:01:56.871Z,31.60
2018-07-13T15:04:24.416Z,31.70
2018-07-13T15:06:51.769Z,31.70
2018-07-13T15:09:19.195Z,31.80
2018-07-13T15:11:46.631Z,31.80
2018-07-13T15:14:14.130Z,31.80
2018-07-13T15:16:41.546Z,31.80
2018-07-13T15:19:08.976Z,31.70
2018-07-13T15:21:36.387Z,31.70
2018-07-13T15:24:03.880Z,31.70
2018-07-13T15:26:31.332Z,31.70
2018-07-13T15:28:58.804Z,31.70
2018-07-13T15:31:26.242Z,31.80
2018-07-13T15:33:53.684Z,31.70
2018-07-13T15:36:21.131Z,31.70
2018-07-13T15:38:48.748Z,31.70
2018-07-13T15:41:16.180Z,31.60
2018-07-13T15:43:43.591Z,31.50
2018-07-13T15:46:11.019Z,31.60
2018-07-13T15:48:38.440Z,31.60
2018-07-13T15:51:05.904Z,31.70
2018-07-13T15:53:33.331Z,31.70
2018-07-13T15:56:00.785Z,31.70
2018-07-13T15:58:28.816Z,31.70
2018-07-13T16:00:56.296Z,31.70
2018-07-13T16:03:23.843Z,31.60
2018-07-13T16:05:51.476Z,31.50
2018-07-13T16:08:19.095Z,31.50
2018-07-13T16:10:46.625Z,31.40
2018-07-13T16:13:14.106Z,31.40
2018-07-13T16:15:41.591Z,31.40
2018-07-13T16:18:09.019Z,31.30
2018-07-13T16:20:36.532Z,31.30
2018-07-13T16:23:04.055Z,31.20
2018-07-13T16:25:31.418Z,31.20
2018-07-13T16:27:58.872Z,31.20
2018-07-13T16:30:26.347Z,31.10
2018-07-13T16:32:53.769Z,31.20
2018-07-13T16:35:21.220Z,31.10
2018-07-13T16:37:48.783Z,31.10
2018-07-13T16:40:16.391Z,31.10
2018-07-13T16:42:43.808Z,31.00
2018-07-13T16:45:11.318Z,30.90
2018-07-13T16:47:38.684Z,30.80
2018-07-13T16:50:06.124Z,30.70
2018-07-13T16:52:33.780Z,30.60
2018-07-13T16:55:01.199Z,30.50
2018-07-13T16:57:28.694Z,30.50
2018-07-13T16:59:56.073Z,30.40
2018-07-13T17:02:23.523Z,30.40
2018-07-13T17:04:50.971Z,30.30
2018-07-13T17:07:18.356Z,30.30
2018-07-13T17:09:45.750Z,30.40
2018-07-13T17:12:13.185Z,30.30
2018-07-13T17:14:40.596Z,30.30
2018-07-13T17:17:07.988Z,30.30
2018-07-13T17:19:35.407Z,30.30
2018-07-13T17:22:02.867Z,30.30
2018-07-13T17:24:30.273Z,30.30
2018-07-13T17:26:57.799Z,30.30
2018-07-13T17:29:25.217Z,30.30
2018-07-13T17:31:52.612Z,30.40
2018-07-13T17:34:20.057Z,30.30
2018-07-13T17:36:47.457Z,30.30
2018-07-13T17:39:14.903Z,30.30
2018-07-13T17:41:42.370Z,30.30
2018-07-13T17:44:09.716Z,30.30
2018-07-13T17:46:37.142Z,30.30
2018-07-13T17:49:04.767Z,30.30
2018-07-13T17:51:32.185Z,30.30
2018-07-13T17:53:59.727Z,30.30
2018-07-13T17:56:27.207Z,30.20
2018-07-13T17:58:54.599Z,30.10
2018-07-13T18:01:21.996Z,30.10
2018-07-13T18:03:49.624Z,30.00
2018-07-13T18:06:17.012Z,30.00
2018-07-13T18:08:44.425Z,30.10
2018-07-13T18:11:11.863Z,30.10
2018-07-13T18:13:39.276Z,30.10
2018-07-13T18:16:06.697Z,30.10
2018-07-13T18:18:34.119Z,30.20
2018-07-13T18:21:01.519Z,30.10
2018-07-13T18:23:29.171Z,30.20
2018-07-13T18:25:56.571Z,30.20
2018-07-13T18:28:23.967Z,30.20
2018-07-13T18:30:51.677Z,30.10
2018-07-13T18:33:19.117Z,30.10
2018-07-13T18:35:46.491Z,30.00
2018-07-13T18:38:13.924Z,29.90
2018-07-13T18:40:41.560Z,29.90
2018-07-13T18:43:08.967Z,29.70
2018-07-13T18:45:36.362Z,29.70
2018-07-13T18:48:03.801Z,29.60
2018-07-13T18:50:31.257Z,29.50
2018-07-13T18:52:58.667Z,29.50
2018-07-13T18:55:26.086Z,29.40
2018-07-13T18:57:53.491Z,29.30
2018-07-13T19:00:20.879Z,29.20
2018-07-13T19:02:48.328Z,29.10
2018-07-13T19:05:15.725Z,29.00
2018-07-13T19:07:43.131Z,28.90
2018-07-13T19:10:10.523Z,28.80
2018-07-13T19:12:37.935Z,28.60
2018-07-13T19:15:05.440Z,28.50
2018-07-13T19:17:32.853Z,28.40
2018-07-13T19:20:00.239Z,28.20
2018-07-13T19:22:27.639Z,28.00
2018-07-13T19:24:55.176Z,27.90
2018-07-13T19:27:22.850Z,27.60
2018-07-13T19:29:50.254Z,27.50
2018-07-13T19:32:17.725Z,27.20
2018-07-13T19:34:45.108Z,27.10
2018-07-13T19:37:12.499Z,26.90
2018-07-13T19:39:39.911Z,26.70
2018-07-13T19:42:07.311Z,26.50
2018-07-13T19:44:34.688Z,26.40
2018-07-13T19:47:02.095Z,26.20
2018-07-13T19:49:29.507Z,26.10
2018-07-13T19:51:56.898Z,26.00
2018-07-13T19:54:24.283Z,25.80
2018-07-13T19:56:51.655Z,25.70
2018-07-13T19:59:19.067Z,25.60
2018-07-13T20:01:46.497Z,25.50
2018-07-13T20:04:13.939Z,25.40
2018-07-13T20:06:41.330Z,25.30
2018-07-13T20:09:08.779Z,25.20
2018-07-13T20:11:36.341Z,25.10
2018-07-13T20:14:03.858Z,25.00
2018-07-13T20:16:31.251Z,24.90
2018-07-13T20:18:58.679Z,24.90
2018-07-13T20:21:26.077Z,24.70
2018-07-13T20:23:53.458Z,24.70
2018-07-13T20:26:20.875Z,24.60
2018-07-13T20:28:48.826Z,24.50
2018-07-13T20:31:16.246Z,24.50
2018-07-13T20:33:43.635Z,24.40
2018-07-13T20:36:11.015Z,24.40
2018-07-13T20:38:38.418Z,24.30
2018-07-13T20:41:05.850Z,24.20
2018-07-13T20:43:33.242Z,24.20
2018-07-13T20:46:00.647Z,24.20
2018-07-13T20:48:28.060Z,24.10
2018-07-13T20:50:55.440Z,24.10
2018-07-13T20:53:22.878Z,24.00
2018-07-13T20:55:50.295Z,24.00
2018-07-13T20:58:17.690Z,23.90
2018-07-13T21:00:45.104Z,23.90
2018-07-13T21:03:12.503Z,23.80
2018-07-13T21:05:39.891Z,23.80
2018-07-13T21:08:07.350Z,23.70
2018-07-13T21:10:34.761Z,23.70
2018-07-13T21:13:02.148Z,23.60
2018-07-13T21:15:29.575Z,23.60
2018-07-13T21:17:57.053Z,23.50
2018-07-13T21:20:24.484Z,23.50
2018-07-13T21:22:51.887Z,23.50
2018-07-13T21:25:19.332Z,23.40
2018-07-13T21:27:46.868Z,23.40
2018-07-13T21:30:14.259Z,23.30
2018-07-13T21:32:41.659Z,23.30
2018-07-13T21:35:09.151Z,23.20
2018-07-13T21:37:36.544Z,23.20
2018-07-13T21:40:04.041Z,23.10
2018-07-13T21:42:31.455Z,23.10
2018-07-13T21:44:58.843Z,23.00
2018-07-13T21:47:26.248Z,22.90
2018-07-13T21:49:53.639Z,22.90
2018-07-13T21:52:21.057Z,22.90
2018-07-13T21:54:48.459Z,22.80
2018-07-13T21:57:15.871Z,22.80
2018-07-13T21:59:43.303Z,22.70
2018-07-13T22:02:10.731Z,22.70
2018-07-13T22:04:38.163Z,22.60
2018-07-13T22:07:05.557Z,22.70
2018-07-13T22:09:32.965Z,22.60
2018-07-13T22:12:00.463Z,22.60
2018-07-13T22:14:27.884Z,22.60
2018-07-13T22:16:55.396Z,22.50
2018-07-13T22:19:22.785Z,22.50
2018-07-13T22:21:50.175Z,22.50
2018-07-13T22:24:17.579Z,22.50
2018-07-13T22:26:45.018Z,22.40
2018-07-13T22:29:12.453Z,22.30
2018-07-13T22:31:39.866Z,22.30
2018-07-13T22:34:07.287Z,22.30
2018-07-13T22:36:34.683Z,22.20
2018-07-13T22:39:02.219Z,22.20
2018-07-13T22:41:29.612Z,22.10
2018-07-13T22:43:57.024Z,22.10
2018-07-13T22:46:24.624Z,22.00
2018-07-13T22:48:52.005Z,22.00
2018-07-13T22:51:19.450Z,22.00
2018-07-13T22:53:46.851Z,21.90
2018-07-13T22:56:14.228Z,21.90
2018-07-13T22:58:41.645Z,21.80
2018-07-13T23:01:09.093Z,21.80
2018-07-13T23:03:36.511Z,21.70
2018-07-13T23:06:03.911Z,21.70
2018-07-13T23:10:59.279Z,21.50
2018-07-13T23:13:26.679Z,21.50
2018-07-13T23:15:54.294Z,21.40
2018-07-13T23:18:21.687Z,21.40
2018-07-13T23:20:49.103Z,21.30
2018-07-13T23:23:16.528Z,21.30
2018-07-13T23:25:44.108Z,21.30
2018-07-13T23:28:12.330Z,21.20
2018-07-13T23:30:39.755Z,21.20
2018-07-13T23:33:07.192Z,21.20
2018-07-13T23:35:34.607Z,21.10
2018-07-13T23:40:29.449Z,21.00
2018-07-13T23:42:56.907Z,21.00
2018-07-13T23:45:24.375Z,20.90
2018-07-13T23:47:51.799Z,20.90
2018-07-13T23:50:19.221Z,20.90
2018-07-13T23:52:46.944Z,20.80
2018-07-13T23:55:14.341Z,20.80
2018-07-13T23:57:41.802Z,20.80
